sensor_id;sensor_type;location;lat;lon;timestamp;P1;durP1;ratioP1;P2;durP2;ratioP2
84958;SDS011;75256;48.062;11.662;2024-02-14T00:00:31;1.58;;;0.75;;
84958;SDS011;75256;48.062;11.662;2024-02-14T00:02:57;1.05;;;0.63;;
84958;SDS011;75256;48.062;11.662;2024-02-14T00:05:22;2.65;;;1.30;;
84958;SDS011;75256;48.062;11.662;2024-02-14T00:07:48;1.65;;;0.50;;
84958;SDS011;75256;48.062;11.662;2024-02-14T00:10:15;1.98;;;1.60;;
84958;SDS011;75256;48.062;11.662;2024-02-14T00:12:41;1.20;;;0.60;;
84958;SDS011;75256;48.062;11.662;2024-02-14T00:15:09;1.60;;;0.90;;
84958;SDS011;75256;48.062;11.662;2024-02-14T00:17:35;2.00;;;0.88;;
84958;SDS011;75256;48.062;11.662;2024-02-14T00:20:03;1.27;;;0.60;;
84958;SDS011;75256;48.062;11.662;2024-02-14T00:22:32;1.08;;;0.63;;
84958;SDS011;75256;48.062;11.662;2024-02-14T00:25:00;0.82;;;0.43;;
84958;SDS011;75256;48.062;11.662;2024-02-14T00:27:27;1.38;;;0.50;;
84958;SDS011;75256;48.062;11.662;2024-02-14T00:29:53;2.28;;;0.20;;
84958;SDS011;75256;48.062;11.662;2024-02-14T00:32:23;1.17;;;0.60;;
84958;SDS011;75256;48.062;11.662;2024-02-14T00:34:48;1.00;;;0.50;;
84958;SDS011;75256;48.062;11.662;2024-02-14T00:37:18;5.25;;;0.73;;
84958;SDS011;75256;48.062;11.662;2024-02-14T00:39:47;1.13;;;0.52;;
84958;SDS011;75256;48.062;11.662;2024-02-14T00:42:19;1.58;;;0.63;;
84958;SDS011;75256;48.062;11.662;2024-02-14T00:44:47;3.35;;;0.70;;
84958;SDS011;75256;48.062;11.662;2024-02-14T00:47:12;2.70;;;0.88;;
84958;SDS011;75256;48.062;11.662;2024-02-14T00:49:37;1.80;;;0.60;;
84958;SDS011;75256;48.062;11.662;2024-02-14T00:52:05;0.75;;;0.43;;
84958;SDS011;75256;48.062;11.662;2024-02-14T00:54:34;0.90;;;0.43;;
84958;SDS011;75256;48.062;11.662;2024-02-14T00:57:02;1.25;;;0.22;;
84958;SDS011;75256;48.062;11.662;2024-02-14T00:59:27;0.98;;;0.30;;
84958;SDS011;75256;48.062;11.662;2024-02-14T01:01:53;1.48;;;0.63;;
84958;SDS011;75256;48.062;11.662;2024-02-14T01:04:18;2.00;;;1.00;;
84958;SDS011;75256;48.062;11.662;2024-02-14T01:06:44;1.25;;;0.55;;
84958;SDS011;75256;48.062;11.662;2024-02-14T01:09:09;0.90;;;0.52;;
84958;SDS011;75256;48.062;11.662;2024-02-14T01:11:34;1.33;;;0.47;;
84958;SDS011;75256;48.062;11.662;2024-02-14T01:14:01;1.05;;;0.30;;
84958;SDS011;75256;48.062;11.662;2024-02-14T01:16:26;1.10;;;0.50;;
84958;SDS011;75256;48.062;11.662;2024-02-14T01:18:52;1.23;;;0.45;;
84958;SDS011;75256;48.062;11.662;2024-02-14T01:21:22;2.33;;;0.68;;
84958;SDS011;75256;48.062;11.662;2024-02-14T01:23:47;0.80;;;0.35;;
84958;SDS011;75256;48.062;11.662;2024-02-14T01:26:13;1.02;;;0.50;;
84958;SDS011;75256;48.062;11.662;2024-02-14T01:28:38;1.70;;;0.50;;
84958;SDS011;75256;48.062;11.662;2024-02-14T01:31:11;1.00;;;0.40;;
84958;SDS011;75256;48.062;11.662;2024-02-14T01:33:39;1.58;;;0.52;;
84958;SDS011;75256;48.062;11.662;2024-02-14T01:36:05;1.30;;;0.65;;
84958;SDS011;75256;48.062;11.662;2024-02-14T01:38:30;1.08;;;0.40;;
84958;SDS011;75256;48.062;11.662;2024-02-14T01:41:02;1.27;;;0.30;;
84958;SDS011;75256;48.062;11.662;2024-02-14T01:43:28;1.35;;;0.50;;
84958;SDS011;75256;48.062;11.662;2024-02-14T01:45:54;0.82;;;0.25;;
84958;SDS011;75256;48.062;11.662;2024-02-14T01:48:21;0.90;;;0.30;;
84958;SDS011;75256;48.062;11.662;2024-02-14T01:50:47;2.13;;;0.40;;
84958;SDS011;75256;48.062;11.662;2024-02-14T01:53:18;0.93;;;0.52;;
84958;SDS011;75256;48.062;11.662;2024-02-14T01:55:49;1.10;;;0.40;;
84958;SDS011;75256;48.062;11.662;2024-02-14T01:58:16;1.17;;;0.38;;
84958;SDS011;75256;48.062;11.662;2024-02-14T02:00:44;1.65;;;0.60;;
84958;SDS011;75256;48.062;11.662;2024-02-14T02:03:11;1.38;;;0.50;;
84958;SDS011;75256;48.062;11.662;2024-02-14T02:05:36;1.45;;;0.40;;
84958;SDS011;75256;48.062;11.662;2024-02-14T02:08:02;0.80;;;0.50;;
84958;SDS011;75256;48.062;11.662;2024-02-14T02:10:27;0.80;;;0.28;;
84958;SDS011;75256;48.062;11.662;2024-02-14T02:12:57;0.50;;;0.20;;
84958;SDS011;75256;48.062;11.662;2024-02-14T02:15:24;0.40;;;0.20;;
84958;SDS011;75256;48.062;11.662;2024-02-14T02:17:52;1.77;;;0.50;;
84958;SDS011;75256;48.062;11.662;2024-02-14T02:20:23;1.33;;;0.65;;
84958;SDS011;75256;48.062;11.662;2024-02-14T02:22:48;1.52;;;0.28;;
84958;SDS011;75256;48.062;11.662;2024-02-14T02:25:19;0.93;;;0.30;;
84958;SDS011;75256;48.062;11.662;2024-02-14T02:27:54;1.83;;;0.30;;
84958;SDS011;75256;48.062;11.662;2024-02-14T02:30:25;0.63;;;0.43;;
84958;SDS011;75256;48.062;11.662;2024-02-14T02:32:50;1.40;;;0.40;;
84958;SDS011;75256;48.062;11.662;2024-02-14T02:35:16;0.88;;;0.30;;
84958;SDS011;75256;48.062;11.662;2024-02-14T02:37:47;1.40;;;0.47;;
84958;SDS011;75256;48.062;11.662;2024-02-14T02:40:15;0.52;;;0.50;;
84958;SDS011;75256;48.062;11.662;2024-02-14T02:42:42;0.60;;;0.20;;
84958;SDS011;75256;48.062;11.662;2024-02-14T02:45:07;1.17;;;0.40;;
84958;SDS011;75256;48.062;11.662;2024-02-14T02:47:33;1.02;;;0.30;;
84958;SDS011;75256;48.062;11.662;2024-02-14T02:49:59;0.60;;;0.30;;
84958;SDS011;75256;48.062;11.662;2024-02-14T02:52:28;0.60;;;0.30;;
84958;SDS011;75256;48.062;11.662;2024-02-14T02:54:54;0.57;;;0.20;;
84958;SDS011;75256;48.062;11.662;2024-02-14T02:57:19;1.00;;;0.30;;
84958;SDS011;75256;48.062;11.662;2024-02-14T02:59:45;0.95;;;0.35;;
84958;SDS011;75256;48.062;11.662;2024-02-14T03:02:13;1.45;;;0.40;;
84958;SDS011;75256;48.062;11.662;2024-02-14T03:04:38;0.75;;;0.43;;
84958;SDS011;75256;48.062;11.662;2024-02-14T03:07:06;1.33;;;0.32;;
84958;SDS011;75256;48.062;11.662;2024-02-14T03:09:35;0.90;;;0.57;;
84958;SDS011;75256;48.062;11.662;2024-02-14T03:12:03;0.85;;;0.22;;
84958;SDS011;75256;48.062;11.662;2024-02-14T03:14:32;0.75;;;0.45;;
84958;SDS011;75256;48.062;11.662;2024-02-14T03:17:04;1.38;;;0.50;;
84958;SDS011;75256;48.062;11.662;2024-02-14T03:19:30;0.20;;;0.13;;
84958;SDS011;75256;48.062;11.662;2024-02-14T03:21:56;1.05;;;0.40;;
84958;SDS011;75256;48.062;11.662;2024-02-14T03:24:22;0.57;;;0.28;;
84958;SDS011;75256;48.062;11.662;2024-02-14T03:26:51;0.68;;;0.32;;
84958;SDS011;75256;48.062;11.662;2024-02-14T03:29:21;1.00;;;0.40;;
84958;SDS011;75256;48.062;11.662;2024-02-14T03:31:46;0.75;;;0.35;;
84958;SDS011;75256;48.062;11.662;2024-02-14T03:34:12;1.05;;;0.30;;
84958;SDS011;75256;48.062;11.662;2024-02-14T03:36:38;2.08;;;0.43;;
84958;SDS011;75256;48.062;11.662;2024-02-14T03:39:04;1.83;;;0.32;;
84958;SDS011;75256;48.062;11.662;2024-02-14T03:41:31;0.55;;;0.10;;
84958;SDS011;75256;48.062;11.662;2024-02-14T03:43:59;1.50;;;0.40;;
84958;SDS011;75256;48.062;11.662;2024-02-14T03:46:31;0.73;;;0.40;;
84958;SDS011;75256;48.062;11.662;2024-02-14T03:49:00;1.33;;;0.30;;
84958;SDS011;75256;48.062;11.662;2024-02-14T03:51:25;2.03;;;0.30;;
84958;SDS011;75256;48.062;11.662;2024-02-14T03:53:51;1.90;;;0.45;;
84958;SDS011;75256;48.062;11.662;2024-02-14T03:56:17;0.55;;;0.25;;
84958;SDS011;75256;48.062;11.662;2024-02-14T03:58:42;1.77;;;0.30;;
84958;SDS011;75256;48.062;11.662;2024-02-14T04:01:14;0.70;;;0.30;;
84958;SDS011;75256;48.062;11.662;2024-02-14T04:03:40;0.35;;;0.20;;
84958;SDS011;75256;48.062;11.662;2024-02-14T04:06:05;1.35;;;0.30;;
84958;SDS011;75256;48.062;11.662;2024-02-14T04:08:31;1.08;;;0.43;;
84958;SDS011;75256;48.062;11.662;2024-02-14T04:11:00;0.60;;;0.22;;
84958;SDS011;75256;48.062;11.662;2024-02-14T04:13:28;1.63;;;0.77;;
84958;SDS011;75256;48.062;11.662;2024-02-14T04:15:53;1.23;;;0.43;;
84958;SDS011;75256;48.062;11.662;2024-02-14T04:18:18;0.73;;;0.30;;
84958;SDS011;75256;48.062;11.662;2024-02-14T04:20:44;4.05;;;0.52;;
84958;SDS011;75256;48.062;11.662;2024-02-14T04:23:10;1.10;;;0.43;;
84958;SDS011;75256;48.062;11.662;2024-02-14T04:25:35;1.45;;;0.38;;
84958;SDS011;75256;48.062;11.662;2024-02-14T04:28:02;1.00;;;0.30;;
84958;SDS011;75256;48.062;11.662;2024-02-14T04:30:30;0.70;;;0.20;;
84958;SDS011;75256;48.062;11.662;2024-02-14T04:32:55;0.93;;;0.20;;
84958;SDS011;75256;48.062;11.662;2024-02-14T04:35:23;1.00;;;0.20;;
84958;SDS011;75256;48.062;11.662;2024-02-14T04:37:49;0.38;;;0.20;;
84958;SDS011;75256;48.062;11.662;2024-02-14T04:40:17;0.57;;;0.30;;
84958;SDS011;75256;48.062;11.662;2024-02-14T04:42:47;0.75;;;0.40;;
84958;SDS011;75256;48.062;11.662;2024-02-14T04:45:13;1.15;;;0.52;;
84958;SDS011;75256;48.062;11.662;2024-02-14T04:47:41;1.98;;;0.60;;
84958;SDS011;75256;48.062;11.662;2024-02-14T04:50:08;1.30;;;0.80;;
84958;SDS011;75256;48.062;11.662;2024-02-14T04:52:34;1.92;;;1.20;;
84958;SDS011;75256;48.062;11.662;2024-02-14T04:54:59;1.88;;;1.02;;
84958;SDS011;75256;48.062;11.662;2024-02-14T04:57:25;1.50;;;0.80;;
84958;SDS011;75256;48.062;11.662;2024-02-14T04:59:50;1.50;;;0.70;;
84958;SDS011;75256;48.062;11.662;2024-02-14T05:02:16;1.58;;;0.65;;
84958;SDS011;75256;48.062;11.662;2024-02-14T05:04:41;1.42;;;0.70;;
84958;SDS011;75256;48.062;11.662;2024-02-14T05:07:09;1.52;;;0.50;;
84958;SDS011;75256;48.062;11.662;2024-02-14T05:09:34;1.55;;;0.40;;
84958;SDS011;75256;48.062;11.662;2024-02-14T05:12:02;4.10;;;0.80;;
84958;SDS011;75256;48.062;11.662;2024-02-14T05:14:28;1.95;;;0.85;;
84958;SDS011;75256;48.062;11.662;2024-02-14T05:16:57;2.08;;;1.02;;
84958;SDS011;75256;48.062;11.662;2024-02-14T05:19:26;1.20;;;0.73;;
84958;SDS011;75256;48.062;11.662;2024-02-14T05:21:51;2.00;;;1.42;;
84958;SDS011;75256;48.062;11.662;2024-02-14T05:24:17;2.17;;;1.17;;
84958;SDS011;75256;48.062;11.662;2024-02-14T05:26:45;3.55;;;1.60;;
84958;SDS011;75256;48.062;11.662;2024-02-14T05:29:10;3.13;;;1.60;;
84958;SDS011;75256;48.062;11.662;2024-02-14T05:31:54;3.45;;;1.58;;
84958;SDS011;75256;48.062;11.662;2024-02-14T05:34:22;3.28;;;1.40;;
84958;SDS011;75256;48.062;11.662;2024-02-14T05:36:50;3.20;;;1.30;;
84958;SDS011;75256;48.062;11.662;2024-02-14T05:39:17;3.42;;;1.05;;
84958;SDS011;75256;48.062;11.662;2024-02-14T05:41:44;1.33;;;0.50;;
84958;SDS011;75256;48.062;11.662;2024-02-14T05:44:09;1.80;;;0.55;;
84958;SDS011;75256;48.062;11.662;2024-02-14T05:46:37;2.13;;;0.88;;
84958;SDS011;75256;48.062;11.662;2024-02-14T05:49:02;2.70;;;0.85;;
84958;SDS011;75256;48.062;11.662;2024-02-14T05:51:28;2.10;;;0.77;;
84958;SDS011;75256;48.062;11.662;2024-02-14T05:53:54;1.30;;;0.65;;
84958;SDS011;75256;48.062;11.662;2024-02-14T05:56:19;1.55;;;0.63;;
84958;SDS011;75256;48.062;11.662;2024-02-14T05:58:47;3.83;;;1.10;;
84958;SDS011;75256;48.062;11.662;2024-02-14T06:01:12;1.60;;;0.63;;
84958;SDS011;75256;48.062;11.662;2024-02-14T06:03:37;1.08;;;0.73;;
84958;SDS011;75256;48.062;11.662;2024-02-14T06:06:03;3.42;;;1.60;;
84958;SDS011;75256;48.062;11.662;2024-02-14T06:08:29;2.00;;;0.68;;
84958;SDS011;75256;48.062;11.662;2024-02-14T06:10:54;3.83;;;0.82;;
84958;SDS011;75256;48.062;11.662;2024-02-14T06:13:20;1.85;;;0.63;;
84958;SDS011;75256;48.062;11.662;2024-02-14T06:15:45;1.60;;;0.85;;
84958;SDS011;75256;48.062;11.662;2024-02-14T06:18:12;1.20;;;0.63;;
84958;SDS011;75256;48.062;11.662;2024-02-14T06:20:41;2.35;;;0.95;;
84958;SDS011;75256;48.062;11.662;2024-02-14T06:23:08;2.05;;;0.82;;
84958;SDS011;75256;48.062;11.662;2024-02-14T06:25:34;0.82;;;0.47;;
84958;SDS011;75256;48.062;11.662;2024-02-14T06:27:59;1.42;;;0.50;;
84958;SDS011;75256;48.062;11.662;2024-02-14T06:30:24;1.60;;;0.82;;
84958;SDS011;75256;48.062;11.662;2024-02-14T06:32:52;1.90;;;0.57;;
84958;SDS011;75256;48.062;11.662;2024-02-14T06:35:17;1.15;;;0.52;;
84958;SDS011;75256;48.062;11.662;2024-02-14T06:37:46;0.85;;;0.60;;
84958;SDS011;75256;48.062;11.662;2024-02-14T06:40:11;1.58;;;0.75;;
84958;SDS011;75256;48.062;11.662;2024-02-14T06:42:37;0.52;;;0.22;;
84958;SDS011;75256;48.062;11.662;2024-02-14T06:45:02;1.95;;;0.75;;
84958;SDS011;75256;48.062;11.662;2024-02-14T06:47:33;1.48;;;0.50;;
84958;SDS011;75256;48.062;11.662;2024-02-14T06:49:58;0.93;;;0.52;;
84958;SDS011;75256;48.062;11.662;2024-02-14T06:52:26;1.92;;;0.68;;
84958;SDS011;75256;48.062;11.662;2024-02-14T06:54:51;3.35;;;1.23;;
84958;SDS011;75256;48.062;11.662;2024-02-14T06:57:17;1.30;;;0.73;;
84958;SDS011;75256;48.062;11.662;2024-02-14T06:59:45;1.23;;;0.73;;
84958;SDS011;75256;48.062;11.662;2024-02-14T07:02:10;1.00;;;0.60;;
84958;SDS011;75256;48.062;11.662;2024-02-14T07:04:36;1.60;;;0.80;;
84958;SDS011;75256;48.062;11.662;2024-02-14T07:07:02;0.88;;;0.40;;
84958;SDS011;75256;48.062;11.662;2024-02-14T07:09:30;1.55;;;0.68;;
84958;SDS011;75256;48.062;11.662;2024-02-14T07:11:55;7.28;;;0.57;;
84958;SDS011;75256;48.062;11.662;2024-02-14T07:14:23;1.60;;;0.65;;
84958;SDS011;75256;48.062;11.662;2024-02-14T07:16:50;2.38;;;0.50;;
84958;SDS011;75256;48.062;11.662;2024-02-14T07:19:16;1.48;;;0.50;;
84958;SDS011;75256;48.062;11.662;2024-02-14T07:21:41;1.67;;;0.50;;
84958;SDS011;75256;48.062;11.662;2024-02-14T07:24:07;1.70;;;0.50;;
84958;SDS011;75256;48.062;11.662;2024-02-14T07:26:32;1.67;;;1.52;;
84958;SDS011;75256;48.062;11.662;2024-02-14T07:29:00;1.58;;;0.50;;
84958;SDS011;75256;48.062;11.662;2024-02-14T07:31:28;1.27;;;0.52;;
84958;SDS011;75256;48.062;11.662;2024-02-14T07:34:00;1.73;;;0.65;;
84958;SDS011;75256;48.062;11.662;2024-02-14T07:36:25;1.58;;;0.68;;
84958;SDS011;75256;48.062;11.662;2024-02-14T07:38:51;10.93;;;4.93;;
84958;SDS011;75256;48.062;11.662;2024-02-14T07:41:16;12.27;;;5.43;;
84958;SDS011;75256;48.062;11.662;2024-02-14T07:43:41;12.02;;;6.30;;
84958;SDS011;75256;48.062;11.662;2024-02-14T07:46:07;8.93;;;3.65;;
84958;SDS011;75256;48.062;11.662;2024-02-14T07:48:33;7.00;;;3.47;;
84958;SDS011;75256;48.062;11.662;2024-02-14T07:50:59;3.45;;;2.35;;
84958;SDS011;75256;48.062;11.662;2024-02-14T07:53:24;3.17;;;1.40;;
84958;SDS011;75256;48.062;11.662;2024-02-14T07:55:53;1.92;;;1.20;;
84958;SDS011;75256;48.062;11.662;2024-02-14T07:58:19;1.40;;;0.80;;
84958;SDS011;75256;48.062;11.662;2024-02-14T08:00:45;2.63;;;0.80;;
84958;SDS011;75256;48.062;11.662;2024-02-14T08:03:10;4.30;;;0.55;;
84958;SDS011;75256;48.062;11.662;2024-02-14T08:05:38;0.90;;;0.75;;
84958;SDS011;75256;48.062;11.662;2024-02-14T08:08:06;0.70;;;0.30;;
84958;SDS011;75256;48.062;11.662;2024-02-14T08:10:31;0.85;;;0.35;;
84958;SDS011;75256;48.062;11.662;2024-02-14T08:12:57;0.80;;;0.30;;
84958;SDS011;75256;48.062;11.662;2024-02-14T08:15:26;1.15;;;0.32;;
84958;SDS011;75256;48.062;11.662;2024-02-14T08:17:54;0.80;;;0.32;;
84958;SDS011;75256;48.062;11.662;2024-02-14T08:20:23;0.70;;;0.20;;
84958;SDS011;75256;48.062;11.662;2024-02-14T08:22:49;1.02;;;0.70;;
84958;SDS011;75256;48.062;11.662;2024-02-14T08:25:14;1.88;;;0.30;;
84958;SDS011;75256;48.062;11.662;2024-02-14T08:27:40;1.38;;;0.22;;
84958;SDS011;75256;48.062;11.662;2024-02-14T08:30:06;1.60;;;0.35;;
84958;SDS011;75256;48.062;11.662;2024-02-14T08:32:33;2.60;;;0.52;;
84958;SDS011;75256;48.062;11.662;2024-02-14T08:35:01;1.42;;;0.57;;
84958;SDS011;75256;48.062;11.662;2024-02-14T08:37:26;0.80;;;0.25;;
84958;SDS011;75256;48.062;11.662;2024-02-14T08:39:54;1.13;;;0.30;;
84958;SDS011;75256;48.062;11.662;2024-02-14T08:42:24;0.38;;;0.25;;
84958;SDS011;75256;48.062;11.662;2024-02-14T08:44:51;1.88;;;0.65;;
84958;SDS011;75256;48.062;11.662;2024-02-14T08:47:17;1.60;;;0.40;;
84958;SDS011;75256;48.062;11.662;2024-02-14T08:49:42;2.40;;;0.52;;
84958;SDS011;75256;48.062;11.662;2024-02-14T08:52:12;1.48;;;0.40;;
84958;SDS011;75256;48.062;11.662;2024-02-14T08:54:38;0.30;;;0.30;;
84958;SDS011;75256;48.062;11.662;2024-02-14T08:57:06;1.48;;;0.60;;
84958;SDS011;75256;48.062;11.662;2024-02-14T08:59:33;1.48;;;0.32;;
84958;SDS011;75256;48.062;11.662;2024-02-14T09:02:01;0.50;;;0.40;;
84958;SDS011;75256;48.062;11.662;2024-02-14T09:04:27;1.90;;;0.57;;
84958;SDS011;75256;48.062;11.662;2024-02-14T09:06:58;2.50;;;0.82;;
84958;SDS011;75256;48.062;11.662;2024-02-14T09:09:24;1.98;;;0.73;;
84958;SDS011;75256;48.062;11.662;2024-02-14T09:11:49;3.20;;;1.20;;
84958;SDS011;75256;48.062;11.662;2024-02-14T09:14:16;2.95;;;1.08;;
84958;SDS011;75256;48.062;11.662;2024-02-14T09:16:46;2.78;;;0.93;;
84958;SDS011;75256;48.062;11.662;2024-02-14T09:19:12;2.28;;;1.23;;
84958;SDS011;75256;48.062;11.662;2024-02-14T09:21:40;1.63;;;0.70;;
84958;SDS011;75256;48.062;11.662;2024-02-14T09:24:11;3.75;;;0.90;;
84958;SDS011;75256;48.062;11.662;2024-02-14T09:26:40;4.32;;;0.30;;
84958;SDS011;75256;48.062;11.662;2024-02-14T09:29:05;1.38;;;0.40;;
84958;SDS011;75256;48.062;11.662;2024-02-14T09:31:35;0.68;;;0.20;;
84958;SDS011;75256;48.062;11.662;2024-02-14T09:34:01;0.50;;;0.32;;
84958;SDS011;75256;48.062;11.662;2024-02-14T09:36:26;0.50;;;0.10;;
84958;SDS011;75256;48.062;11.662;2024-02-14T09:38:52;0.43;;;0.15;;
84958;SDS011;75256;48.062;11.662;2024-02-14T09:41:22;1.27;;;0.60;;
84958;SDS011;75256;48.062;11.662;2024-02-14T09:43:55;1.58;;;0.50;;
84958;SDS011;75256;48.062;11.662;2024-02-14T09:46:22;0.55;;;0.32;;
84958;SDS011;75256;48.062;11.662;2024-02-14T09:48:52;0.30;;;0.10;;
84958;SDS011;75256;48.062;11.662;2024-02-14T09:51:21;0.90;;;0.20;;
84958;SDS011;75256;48.062;11.662;2024-02-14T09:53:49;0.40;;;0.22;;
84958;SDS011;75256;48.062;11.662;2024-02-14T09:56:15;1.90;;;0.20;;
84958;SDS011;75256;48.062;11.662;2024-02-14T09:58:43;3.70;;;0.40;;
84958;SDS011;75256;48.062;11.662;2024-02-14T10:01:15;1.38;;;0.40;;
84958;SDS011;75256;48.062;11.662;2024-02-14T10:03:40;1.75;;;0.35;;
84958;SDS011;75256;48.062;11.662;2024-02-14T10:06:06;1.65;;;0.40;;
84958;SDS011;75256;48.062;11.662;2024-02-14T10:08:31;0.38;;;0.20;;
84958;SDS011;75256;48.062;11.662;2024-02-14T10:10:57;0.10;;;0.10;;
84958;SDS011;75256;48.062;11.662;2024-02-14T10:13:29;0.03;;;0.03;;
84958;SDS011;75256;48.062;11.662;2024-02-14T10:15:56;1.10;;;0.40;;
84958;SDS011;75256;48.062;11.662;2024-02-14T10:18:22;1.05;;;0.40;;
84958;SDS011;75256;48.062;11.662;2024-02-14T10:20:55;0.30;;;0.10;;
84958;SDS011;75256;48.062;11.662;2024-02-14T10:23:23;1.30;;;0.32;;
84958;SDS011;75256;48.062;11.662;2024-02-14T10:25:56;0.98;;;0.40;;
84958;SDS011;75256;48.062;11.662;2024-02-14T10:28:22;0.88;;;0.28;;
84958;SDS011;75256;48.062;11.662;2024-02-14T10:30:48;0.98;;;0.28;;
84958;SDS011;75256;48.062;11.662;2024-02-14T10:33:17;1.70;;;0.32;;
84958;SDS011;75256;48.062;11.662;2024-02-14T10:35:46;0.75;;;0.40;;
84958;SDS011;75256;48.062;11.662;2024-02-14T10:38:12;0.85;;;0.60;;
84958;SDS011;75256;48.062;11.662;2024-02-14T10:40:41;1.05;;;0.20;;
84958;SDS011;75256;48.062;11.662;2024-02-14T10:43:07;0.75;;;0.20;;
84958;SDS011;75256;48.062;11.662;2024-02-14T10:45:36;0.28;;;0.10;;
84958;SDS011;75256;48.062;11.662;2024-02-14T10:48:03;1.75;;;0.30;;
84958;SDS011;75256;48.062;11.662;2024-02-14T10:50:29;0.82;;;0.40;;
84958;SDS011;75256;48.062;11.662;2024-02-14T10:53:04;0.43;;;0.20;;
84958;SDS011;75256;48.062;11.662;2024-02-14T10:55:33;0.60;;;0.35;;
84958;SDS011;75256;48.062;11.662;2024-02-14T10:57:59;0.68;;;0.32;;
84958;SDS011;75256;48.062;11.662;2024-02-14T11:00:28;0.95;;;0.17;;
84958;SDS011;75256;48.062;11.662;2024-02-14T11:02:55;0.43;;;0.20;;
84958;SDS011;75256;48.062;11.662;2024-02-14T11:05:21;1.27;;;0.30;;
84958;SDS011;75256;48.062;11.662;2024-02-14T11:07:50;0.17;;;0.13;;
84958;SDS011;75256;48.062;11.662;2024-02-14T11:10:22;0.35;;;0.10;;
84958;SDS011;75256;48.062;11.662;2024-02-14T11:12:51;0.57;;;0.17;;
84958;SDS011;75256;48.062;11.662;2024-02-14T11:15:20;1.55;;;0.40;;
84958;SDS011;75256;48.062;11.662;2024-02-14T11:18:03;1.40;;;0.50;;
84958;SDS011;75256;48.062;11.662;2024-02-14T11:20:36;0.30;;;0.17;;
84958;SDS011;75256;48.062;11.662;2024-02-14T11:23:03;0.40;;;0.20;;
84958;SDS011;75256;48.062;11.662;2024-02-14T11:25:31;0.50;;;0.20;;
84958;SDS011;75256;48.062;11.662;2024-02-14T11:28:11;1.40;;;0.32;;
84958;SDS011;75256;48.062;11.662;2024-02-14T11:30:41;0.57;;;0.20;;
84958;SDS011;75256;48.062;11.662;2024-02-14T11:33:29;1.77;;;0.20;;
84958;SDS011;75256;48.062;11.662;2024-02-14T11:35:54;0.85;;;0.20;;
84958;SDS011;75256;48.062;11.662;2024-02-14T11:38:20;0.57;;;0.15;;
84958;SDS011;75256;48.062;11.662;2024-02-14T11:40:51;0.47;;;0.10;;
84958;SDS011;75256;48.062;11.662;2024-02-14T11:43:19;1.55;;;0.30;;
84958;SDS011;75256;48.062;11.662;2024-02-14T11:45:45;2.35;;;0.20;;
84958;SDS011;75256;48.062;11.662;2024-02-14T11:48:14;1.50;;;0.20;;
84958;SDS011;75256;48.062;11.662;2024-02-14T11:50:47;1.27;;;0.22;;
84958;SDS011;75256;48.062;11.662;2024-02-14T11:53:17;1.17;;;0.30;;
84958;SDS011;75256;48.062;11.662;2024-02-14T11:55:45;2.22;;;0.40;;
84958;SDS011;75256;48.062;11.662;2024-02-14T11:58:15;1.45;;;0.38;;
84958;SDS011;75256;48.062;11.662;2024-02-14T12:00:42;1.23;;;0.30;;
84958;SDS011;75256;48.062;11.662;2024-02-14T12:03:23;0.60;;;0.22;;
84958;SDS011;75256;48.062;11.662;2024-02-14T12:05:53;1.23;;;0.38;;
84958;SDS011;75256;48.062;11.662;2024-02-14T12:08:24;0.38;;;0.10;;
84958;SDS011;75256;48.062;11.662;2024-02-14T12:10:49;0.93;;;0.20;;
84958;SDS011;75256;48.062;11.662;2024-02-14T12:13:19;0.40;;;0.10;;
84958;SDS011;75256;48.062;11.662;2024-02-14T12:15:46;1.10;;;0.63;;
84958;SDS011;75256;48.062;11.662;2024-02-14T12:18:13;0.88;;;0.40;;
84958;SDS011;75256;48.062;11.662;2024-02-14T12:20:41;0.20;;;0.10;;
84958;SDS011;75256;48.062;11.662;2024-02-14T12:23:16;0.85;;;0.25;;
84958;SDS011;75256;48.062;11.662;2024-02-14T12:25:46;0.63;;;0.30;;
84958;SDS011;75256;48.062;11.662;2024-02-14T12:28:18;0.45;;;0.20;;
84958;SDS011;75256;48.062;11.662;2024-02-14T12:30:44;1.40;;;0.30;;
84958;SDS011;75256;48.062;11.662;2024-02-14T12:33:12;0.17;;;0.10;;
84958;SDS011;75256;48.062;11.662;2024-02-14T12:35:47;0.73;;;0.10;;
84958;SDS011;75256;48.062;11.662;2024-02-14T12:38:14;0.93;;;0.20;;
84958;SDS011;75256;48.062;11.662;2024-02-14T12:40:43;1.38;;;0.32;;
84958;SDS011;75256;48.062;11.662;2024-02-14T12:43:13;1.13;;;0.38;;
84958;SDS011;75256;48.062;11.662;2024-02-14T12:45:39;0.10;;;0.00;;
84958;SDS011;75256;48.062;11.662;2024-02-14T12:48:06;0.28;;;0.10;;
84958;SDS011;75256;48.062;11.662;2024-02-14T12:50:38;0.20;;;0.00;;
84958;SDS011;75256;48.062;11.662;2024-02-14T12:53:04;1.00;;;0.20;;
84958;SDS011;75256;48.062;11.662;2024-02-14T12:55:30;0.47;;;0.20;;
84958;SDS011;75256;48.062;11.662;2024-02-14T12:57:58;0.50;;;0.20;;
84958;SDS011;75256;48.062;11.662;2024-02-14T13:00:26;0.10;;;0.00;;
84958;SDS011;75256;48.062;11.662;2024-02-14T13:05:23;0.50;;;0.20;;
84958;SDS011;75256;48.062;11.662;2024-02-14T13:07:48;1.33;;;0.30;;
84958;SDS011;75256;48.062;11.662;2024-02-14T13:10:18;0.90;;;0.30;;
84958;SDS011;75256;48.062;11.662;2024-02-14T13:12:45;0.73;;;0.22;;
84958;SDS011;75256;48.062;11.662;2024-02-14T13:15:17;0.30;;;0.08;;
84958;SDS011;75256;48.062;11.662;2024-02-14T13:17:42;0.93;;;0.30;;
84958;SDS011;75256;48.062;11.662;2024-02-14T13:20:08;0.40;;;0.10;;
84958;SDS011;75256;48.062;11.662;2024-02-14T13:22:36;1.25;;;0.30;;
84958;SDS011;75256;48.062;11.662;2024-02-14T13:25:01;0.25;;;0.00;;
84958;SDS011;75256;48.062;11.662;2024-02-14T13:27:32;0.63;;;0.20;;
84958;SDS011;75256;48.062;11.662;2024-02-14T13:30:01;0.63;;;0.10;;
84958;SDS011;75256;48.062;11.662;2024-02-14T13:32:27;1.17;;;0.30;;
84958;SDS011;75256;48.062;11.662;2024-02-14T13:34:54;0.30;;;0.03;;
84958;SDS011;75256;48.062;11.662;2024-02-14T13:37:20;0.20;;;0.00;;
84958;SDS011;75256;48.062;11.662;2024-02-14T13:39:46;0.90;;;0.30;;
84958;SDS011;75256;48.062;11.662;2024-02-14T13:42:11;0.88;;;0.10;;
84958;SDS011;75256;48.062;11.662;2024-02-14T13:44:36;1.83;;;0.30;;
84958;SDS011;75256;48.062;11.662;2024-02-14T13:47:02;2.08;;;0.40;;
84958;SDS011;75256;48.062;11.662;2024-02-14T13:49:32;0.60;;;0.20;;
84958;SDS011;75256;48.062;11.662;2024-02-14T13:52:00;0.98;;;0.40;;
84958;SDS011;75256;48.062;11.662;2024-02-14T13:54:25;0.05;;;0.05;;
84958;SDS011;75256;48.062;11.662;2024-02-14T13:56:55;0.88;;;0.20;;
84958;SDS011;75256;48.062;11.662;2024-02-14T13:59:21;1.33;;;0.20;;
84958;SDS011;75256;48.062;11.662;2024-02-14T14:01:46;0.20;;;0.00;;
84958;SDS011;75256;48.062;11.662;2024-02-14T14:04:15;1.30;;;0.05;;
84958;SDS011;75256;48.062;11.662;2024-02-14T14:06:40;0.25;;;0.00;;
84958;SDS011;75256;48.062;11.662;2024-02-14T14:09:06;0.32;;;0.10;;
84958;SDS011;75256;48.062;11.662;2024-02-14T14:11:33;0.52;;;0.20;;
84958;SDS011;75256;48.062;11.662;2024-02-14T14:14:00;0.32;;;0.15;;
84958;SDS011;75256;48.062;11.662;2024-02-14T14:16:26;0.40;;;0.10;;
84958;SDS011;75256;48.062;11.662;2024-02-14T14:18:51;0.20;;;0.00;;
84958;SDS011;75256;48.062;11.662;2024-02-14T14:21:17;0.55;;;0.20;;
84958;SDS011;75256;48.062;11.662;2024-02-14T14:23:45;0.10;;;0.00;;
84958;SDS011;75256;48.062;11.662;2024-02-14T14:26:12;0.55;;;0.20;;
84958;SDS011;75256;48.062;11.662;2024-02-14T14:28:38;0.45;;;0.10;;
84958;SDS011;75256;48.062;11.662;2024-02-14T14:31:04;0.43;;;0.10;;
84958;SDS011;75256;48.062;11.662;2024-02-14T14:33:36;0.50;;;0.20;;
84958;SDS011;75256;48.062;11.662;2024-02-14T14:36:07;0.10;;;0.05;;